FD73 weather

Los Olas Center Heliport
Fort Lauderdale, Florida, United States

Public forecast

Using degrees Fahrenheit for public forecast. Weather courtesy of forecast.io.

METAR (pilot weather report)

Closest report is Fort Lauderdale Hollywood International Airport, 2.9 nm (5.3 km) SSW. Retrieved 2019/09/19 19:53 UTC (30 minutes ago):

KFLL 191953Z 06016KT 10SM SCT040 SCT050 SCT080 29/19 A2991 RMK AO2 SLP128 T02890189

TAF (pilot weather forecast)

Closest forecast is Fort Lauderdale Hollywood International Airport, 2.9 nm (5.3 km) SSW. Retrieved 2019/09/19 18:52 UTC (2 hours ago):

TAF KFLL 191746Z 1918/2024 06015G25KT P6SM VCSH SCT035 BKN050 FM200100 07015KT P6SM SCT030 SCT050 FM200900 08015G25KT P6SM BKN050 FM201500 07018G28KT P6SM VCSH BKN050